createdAt,value
2022-09-27T00:01:11.616Z,0.80
2022-09-27T00:03:39.032Z,0.57
2022-09-27T00:06:16.537Z,0.73
2022-09-27T00:08:43.325Z,0.80
2022-09-27T00:11:34.502Z,0.65
2022-09-27T00:14:01.477Z,0.90
2022-09-27T00:16:31.088Z,1.15
2022-09-27T00:19:11.119Z,0.75
2022-09-27T00:21:37.887Z,0.70
2022-09-27T00:24:04.527Z,0.73
2022-09-27T00:26:31.689Z,0.70
2022-09-27T00:28:58.524Z,1.00
2022-09-27T00:31:31.094Z,0.75
2022-09-27T00:34:02.819Z,0.50
2022-09-27T00:36:31.613Z,0.75
2022-09-27T00:39:00.236Z,0.50
2022-09-27T00:41:35.999Z,0.60
2022-09-27T00:44:29.232Z,0.40
2022-09-27T00:47:01.892Z,0.57
2022-09-27T00:49:34.825Z,1.17
2022-09-27T00:52:08.309Z,0.70
2022-09-27T00:54:38.790Z,0.60
2022-09-27T00:57:05.768Z,0.98
2022-09-27T00:59:35.732Z,0.77
2022-09-27T01:02:07.358Z,0.93
2022-09-27T01:04:37.185Z,0.95
2022-09-27T01:07:04.205Z,1.20
2022-09-27T01:09:31.265Z,0.90
2022-09-27T01:12:07.364Z,1.02
2022-09-27T01:14:36.908Z,0.80
2022-09-27T01:17:28.313Z,1.05
2022-09-27T01:20:00.988Z,1.45
2022-09-27T01:22:43.200Z,1.08
2022-09-27T01:25:27.988Z,0.93
2022-09-27T01:28:16.227Z,1.15
2022-09-27T01:31:02.023Z,0.82
2022-09-27T01:33:40.680Z,1.17
2022-09-27T01:36:22.841Z,0.80
2022-09-27T01:39:14.647Z,1.48
2022-09-27T01:42:15.573Z,1.23
2022-09-27T01:45:28.411Z,1.73
2022-09-27T01:48:15.873Z,1.48
2022-09-27T01:51:19.513Z,1.02
2022-09-27T01:53:56.384Z,1.50
2022-09-27T01:56:52.010Z,1.67
2022-09-27T01:59:29.693Z,1.50
2022-09-27T02:02:26.727Z,1.58
2022-09-27T02:05:28.569Z,1.92
2022-09-27T02:08:02.792Z,1.45
2022-09-27T02:10:44.747Z,1.23
2022-09-27T02:13:24.335Z,1.50
2022-09-27T02:16:12.842Z,1.70
2022-09-27T02:18:53.748Z,1.85
2022-09-27T02:21:21.099Z,1.30
2022-09-27T02:23:53.595Z,1.48
2022-09-27T02:26:37.448Z,1.13
2022-09-27T02:29:10.447Z,1.40
2022-09-27T02:31:44.971Z,1.00
2022-09-27T02:34:29.441Z,0.80
2022-09-27T02:36:56.838Z,0.90
2022-09-27T02:39:24.477Z,1.15
2022-09-27T02:42:00.337Z,1.40
2022-09-27T02:44:28.920Z,1.80
2022-09-27T02:47:50.081Z,0.77
2022-09-27T02:50:44.220Z,1.10
2022-09-27T02:53:52.054Z,1.20
2022-09-27T02:57:16.538Z,1.15
2022-09-27T03:00:19.623Z,1.30
2022-09-27T03:03:20.761Z,0.73
2022-09-27T03:06:15.546Z,0.80
2022-09-27T03:08:44.021Z,0.80
2022-09-27T03:11:10.679Z,0.52
2022-09-27T03:13:55.843Z,1.27
2022-09-27T03:16:26.345Z,0.85
2022-09-27T03:19:11.506Z,0.67
2022-09-27T03:21:58.493Z,0.80
2022-09-27T03:24:25.190Z,1.13
2022-09-27T03:26:52.206Z,0.73
2022-09-27T03:29:18.885Z,0.88
2022-09-27T03:31:50.988Z,1.20
2022-09-27T03:34:44.028Z,1.20
2022-09-27T03:37:10.588Z,1.08
2022-09-27T03:39:37.166Z,0.70
2022-09-27T03:42:03.890Z,0.70
2022-09-27T03:44:30.624Z,0.65
2022-09-27T03:46:58.532Z,0.88
2022-09-27T03:49:25.237Z,0.95
2022-09-27T03:51:51.845Z,0.70
2022-09-27T03:54:18.504Z,1.23
2022-09-27T03:56:45.421Z,0.95
2022-09-27T03:59:12.546Z,1.27
2022-09-27T04:01:59.095Z,1.27
2022-09-27T04:04:45.782Z,1.60
2022-09-27T04:07:12.493Z,2.08
2022-09-27T04:09:43.881Z,2.60
2022-09-27T04:12:12.205Z,2.85
2022-09-27T04:14:38.914Z,3.03
2022-09-27T04:17:25.610Z,2.60
2022-09-27T04:20:30.419Z,2.35
2022-09-27T04:22:58.176Z,2.00
2022-09-27T04:25:24.748Z,2.08
2022-09-27T04:27:55.276Z,2.30
2022-09-27T04:30:22.935Z,2.50
2022-09-27T04:33:25.070Z,2.00
2022-09-27T04:36:27.434Z,1.92
2022-09-27T04:39:15.745Z,1.58
2022-09-27T04:41:44.961Z,1.65
2022-09-27T04:44:11.954Z,1.55
2022-09-27T04:46:41.332Z,1.52
2022-09-27T04:49:07.965Z,1.00
2022-09-27T04:51:36.149Z,1.67
2022-09-27T04:54:04.748Z,1.30
2022-09-27T04:56:34.718Z,1.50
2022-09-27T04:59:08.308Z,1.42
2022-09-27T05:01:38.530Z,1.33
2022-09-27T05:04:12.941Z,1.63
2022-09-27T05:06:43.253Z,1.38
2022-09-27T05:09:18.387Z,1.60
2022-09-27T05:11:49.996Z,1.27
2022-09-27T05:14:16.773Z,1.60
2022-09-27T05:17:02.088Z,1.05
2022-09-27T05:19:44.611Z,1.02
2022-09-27T05:22:28.885Z,1.23
2022-09-27T05:24:55.880Z,0.90
2022-09-27T05:27:24.357Z,0.82
2022-09-27T05:29:51.532Z,1.13
2022-09-27T05:32:22.404Z,1.00
2022-09-27T05:34:55.389Z,1.13
2022-09-27T05:37:23.294Z,1.40
2022-09-27T05:39:50.109Z,0.70
2022-09-27T05:42:17.490Z,1.20
2022-09-27T05:44:47.476Z,1.05
2022-09-27T05:47:15.891Z,0.95
2022-09-27T05:49:42.655Z,1.42
2022-09-27T05:52:15.062Z,0.90
2022-09-27T05:54:43.557Z,1.15
2022-09-27T05:57:10.367Z,0.93
2022-09-27T05:59:44.411Z,1.05
2022-09-27T06:02:20.423Z,1.08
2022-09-27T06:05:06.082Z,0.90
2022-09-27T06:07:51.390Z,0.82
2022-09-27T06:10:25.330Z,0.95
2022-09-27T06:12:52.319Z,1.20
2022-09-27T06:15:31.406Z,1.55
2022-09-27T06:18:03.034Z,0.80
2022-09-27T06:20:29.603Z,0.80
2022-09-27T06:23:03.986Z,0.90
2022-09-27T06:25:30.584Z,0.82
2022-09-27T06:28:09.296Z,1.08
2022-09-27T06:30:43.615Z,0.85
2022-09-27T06:33:20.673Z,1.00
2022-09-27T06:35:53.261Z,0.93
2022-09-27T06:38:24.837Z,1.00
2022-09-27T06:41:06.501Z,1.00
2022-09-27T06:43:51.747Z,1.10
2022-09-27T06:46:38.220Z,1.25
2022-09-27T06:51:50.128Z,0.60
2022-09-27T06:54:16.732Z,0.75
2022-09-27T06:56:43.569Z,1.05
2022-09-27T06:59:28.800Z,0.63
2022-09-27T07:02:14.128Z,0.50
2022-09-27T07:05:10.146Z,0.60
2022-09-27T07:07:59.142Z,0.85
2022-09-27T07:10:30.181Z,0.82
2022-09-27T07:12:58.263Z,0.55
2022-09-27T07:15:25.240Z,0.50
2022-09-27T07:17:58.349Z,0.60
2022-09-27T07:20:27.455Z,0.65
2022-09-27T07:22:54.014Z,1.05
2022-09-27T07:25:21.262Z,0.70
2022-09-27T07:27:49.753Z,0.70
2022-09-27T07:30:16.974Z,0.80
2022-09-27T07:32:43.612Z,0.63
2022-09-27T07:35:11.255Z,1.13
2022-09-27T07:37:38.308Z,0.98
2022-09-27T07:40:08.613Z,0.60
2022-09-27T07:42:41.065Z,0.60
2022-09-27T07:45:09.402Z,0.52
2022-09-27T07:47:54.928Z,0.82
2022-09-27T07:50:32.173Z,0.77
2022-09-27T07:53:05.397Z,1.25
2022-09-27T07:55:34.925Z,0.47
2022-09-27T07:58:19.841Z,0.50
2022-09-27T08:00:46.957Z,0.68
2022-09-27T08:03:17.480Z,0.90
2022-09-27T08:05:47.850Z,0.60
2022-09-27T08:08:15.830Z,1.05
2022-09-27T08:10:46.815Z,0.50
2022-09-27T08:13:17.838Z,0.57
2022-09-27T08:15:44.557Z,0.43
2022-09-27T08:18:11.351Z,0.50
2022-09-27T08:20:56.883Z,0.60
2022-09-27T08:23:26.760Z,0.43
2022-09-27T08:26:16.296Z,0.60
2022-09-27T08:28:51.414Z,0.50
2022-09-27T08:31:21.151Z,0.30
2022-09-27T08:33:51.460Z,0.50
2022-09-27T08:36:23.988Z,0.88
2022-09-27T08:38:51.941Z,0.40
2022-09-27T08:41:29.358Z,0.43
2022-09-27T08:44:18.634Z,0.90
2022-09-27T08:47:25.202Z,0.52
2022-09-27T08:50:15.758Z,0.85
2022-09-27T08:52:48.672Z,0.50
2022-09-27T08:57:50.216Z,0.63
2022-09-27T09:00:17.056Z,0.80
2022-09-27T09:02:44.180Z,0.60
2022-09-27T09:05:16.855Z,0.57
2022-09-27T09:07:55.748Z,0.45
2022-09-27T09:10:47.655Z,0.60
2022-09-27T09:13:17.171Z,0.30
2022-09-27T09:15:59.481Z,0.68
2022-09-27T09:19:05.862Z,0.40
2022-09-27T09:22:18.050Z,0.47
2022-09-27T09:24:57.600Z,0.50
2022-09-27T09:27:30.050Z,0.57
2022-09-27T09:30:02.572Z,0.70
2022-09-27T09:32:50.860Z,0.40
2022-09-27T09:35:50.592Z,0.55
2022-09-27T09:38:40.290Z,0.93
2022-09-27T09:41:27.978Z,0.45
2022-09-27T09:44:06.442Z,0.70
2022-09-27T09:46:42.293Z,0.90
2022-09-27T09:49:25.592Z,0.50
2022-09-27T09:51:59.176Z,0.90
2022-09-27T09:54:44.236Z,0.70
2022-09-27T09:57:11.084Z,0.40
2022-09-27T09:59:43.780Z,0.63
2022-09-27T10:02:35.821Z,0.57
2022-09-27T10:05:16.095Z,0.60
2022-09-27T10:07:43.084Z,0.80
2022-09-27T10:10:15.258Z,0.60
2022-09-27T10:13:04.341Z,0.80
2022-09-27T10:15:35.850Z,0.55
2022-09-27T10:18:02.442Z,1.00
2022-09-27T10:20:42.194Z,0.80
2022-09-27T10:23:16.308Z,1.00
2022-09-27T10:26:05.280Z,0.98
2022-09-27T10:28:42.399Z,0.77
2022-09-27T10:31:16.040Z,0.75
2022-09-27T10:34:01.612Z,1.08
2022-09-27T10:36:35.170Z,0.55
2022-09-27T10:39:05.481Z,0.75
2022-09-27T10:41:41.576Z,0.80
2022-09-27T10:44:21.466Z,0.90
2022-09-27T10:46:59.936Z,0.65
2022-09-27T10:49:45.527Z,1.15
2022-09-27T10:52:24.055Z,0.93
2022-09-27T10:54:57.747Z,0.70
2022-09-27T10:57:28.565Z,1.00
2022-09-27T11:00:29.716Z,0.80
2022-09-27T11:03:01.500Z,1.00
2022-09-27T11:05:38.237Z,0.90
2022-09-27T11:08:32.560Z,1.63
2022-09-27T11:11:28.237Z,0.90
2022-09-27T11:14:07.962Z,1.70
2022-09-27T11:17:03.572Z,0.90
2022-09-27T11:19:36.826Z,0.80
2022-09-27T11:22:10.608Z,0.95
2022-09-27T11:24:48.288Z,1.73
2022-09-27T11:27:44.716Z,1.40
2022-09-27T11:30:19.511Z,1.00
2022-09-27T11:33:01.112Z,1.00
2022-09-27T11:36:21.980Z,0.90
2022-09-27T11:39:13.351Z,0.95
2022-09-27T11:42:08.161Z,1.02
2022-09-27T11:45:32.153Z,0.65
2022-09-27T11:47:57.192Z,0.73
2022-09-27T11:50:52.281Z,1.00
2022-09-27T11:53:35.452Z,0.80
2022-09-27T11:59:12.385Z,0.77
2022-09-27T12:01:54.082Z,1.15
2022-09-27T12:04:50.905Z,1.10
2022-09-27T12:07:45.354Z,0.80
2022-09-27T12:10:16.824Z,0.88
2022-09-27T12:12:51.542Z,1.05
2022-09-27T12:15:30.732Z,0.70
2022-09-27T12:18:13.101Z,0.90
2022-09-27T12:20:42.114Z,0.80
2022-09-27T12:23:41.279Z,0.80
2022-09-27T12:28:55.309Z,0.90
2022-09-27T12:31:33.561Z,0.82
2022-09-27T12:34:03.009Z,0.75
2022-09-27T12:36:38.766Z,0.82
2022-09-27T12:39:28.360Z,0.60
2022-09-27T12:42:19.094Z,0.57
2022-09-27T12:44:50.616Z,0.70
2022-09-27T12:47:40.297Z,0.50
2022-09-27T12:50:30.090Z,0.80
2022-09-27T12:53:05.156Z,0.80
2022-09-27T12:55:52.591Z,0.80
2022-09-27T12:58:29.046Z,0.65
2022-09-27T13:01:03.316Z,0.90
2022-09-27T13:03:48.958Z,0.80
2022-09-27T13:09:32.388Z,0.60
2022-09-27T13:12:18.962Z,0.88
2022-09-27T13:14:54.155Z,0.88
2022-09-27T13:17:47.578Z,0.68
2022-09-27T13:20:37.278Z,0.77
2022-09-27T13:23:20.783Z,0.60
2022-09-27T13:26:21.493Z,0.68
2022-09-27T13:28:54.829Z,0.50
2022-09-27T13:31:55.255Z,0.70
2022-09-27T13:34:51.741Z,0.63
2022-09-27T13:37:45.243Z,0.60
2022-09-27T13:40:15.775Z,0.60
2022-09-27T13:43:13.166Z,0.60
2022-09-27T13:46:20.889Z,0.50
2022-09-27T13:49:13.123Z,0.50
2022-09-27T13:52:36.061Z,0.50
2022-09-27T13:55:41.340Z,0.70
2022-09-27T13:58:16.797Z,0.70
2022-09-27T14:00:48.169Z,0.70
2022-09-27T14:03:52.366Z,0.50
2022-09-27T14:06:26.201Z,0.63
2022-09-27T14:08:58.795Z,0.60
2022-09-27T14:11:38.865Z,0.60
2022-09-27T14:14:12.840Z,0.50
2022-09-27T14:16:47.986Z,0.40
2022-09-27T14:19:19.314Z,0.50
2022-09-27T14:21:48.408Z,0.47
2022-09-27T14:24:50.082Z,0.50
2022-09-27T14:27:25.232Z,0.40
2022-09-27T14:30:08.149Z,0.47
2022-09-27T14:32:49.946Z,0.52
2022-09-27T14:35:44.227Z,0.70
2022-09-27T14:38:36.538Z,0.43
2022-09-27T14:41:07.793Z,0.50
2022-09-27T14:43:36.682Z,0.30
2022-09-27T14:46:06.857Z,0.40
2022-09-27T14:48:36.706Z,0.40
2022-09-27T14:51:10.634Z,0.50
2022-09-27T14:53:49.947Z,0.50
2022-09-27T14:56:23.722Z,0.32
2022-09-27T14:59:01.617Z,0.40
2022-09-27T15:01:29.779Z,0.47
2022-09-27T15:04:03.778Z,0.30
2022-09-27T15:06:30.584Z,0.30
2022-09-27T15:08:58.658Z,0.30
2022-09-27T15:11:26.264Z,0.38
2022-09-27T15:13:54.918Z,0.57
2022-09-27T15:16:22.816Z,0.30
2022-09-27T15:18:58.723Z,0.30
2022-09-27T15:21:34.501Z,0.40
2022-09-27T15:24:02.690Z,0.30
2022-09-27T15:26:40.122Z,0.50
2022-09-27T15:29:07.162Z,0.50
2022-09-27T15:31:37.065Z,0.50
2022-09-27T15:34:06.559Z,0.38
2022-09-27T15:36:54.711Z,0.40
2022-09-27T15:39:29.688Z,0.43
2022-09-27T15:42:15.692Z,0.43
2022-09-27T15:44:46.598Z,0.38
2022-09-27T15:47:40.009Z,0.40
2022-09-27T15:50:15.835Z,0.30
2022-09-27T15:52:47.839Z,0.20
2022-09-27T15:55:15.144Z,0.45
2022-09-27T15:57:42.672Z,0.30
2022-09-27T16:00:14.901Z,0.47
2022-09-27T16:02:41.428Z,0.65
2022-09-27T16:05:08.359Z,0.40
2022-09-27T16:07:35.329Z,0.70
2022-09-27T16:10:02.036Z,0.70
2022-09-27T16:12:31.166Z,0.40
2022-09-27T16:14:57.745Z,0.50
2022-09-27T16:17:24.388Z,0.65
2022-09-27T16:19:50.902Z,0.60
2022-09-27T16:22:17.491Z,1.25
2022-09-27T16:24:44.024Z,0.43
2022-09-27T16:27:11.454Z,1.10
2022-09-27T16:29:42.295Z,0.70
2022-09-27T16:32:10.993Z,0.75
2022-09-27T16:34:37.568Z,0.70
2022-09-27T16:37:05.233Z,0.45
2022-09-27T16:39:31.892Z,0.80
2022-09-27T16:41:59.828Z,0.75
2022-09-27T16:44:26.412Z,0.88
2022-09-27T16:46:53.026Z,1.00
2022-09-27T16:49:37.926Z,0.88
2022-09-27T16:52:04.586Z,1.17
2022-09-27T16:54:31.191Z,0.95
2022-09-27T16:56:59.012Z,1.20
2022-09-27T16:59:25.782Z,0.98
2022-09-27T17:01:56.704Z,0.73
2022-09-27T17:04:24.473Z,1.30
2022-09-27T17:06:51.336Z,1.30
2022-09-27T17:09:17.839Z,1.00
2022-09-27T17:11:44.346Z,1.38
2022-09-27T17:14:16.951Z,1.33
2022-09-27T17:16:45.559Z,1.35
2022-09-27T17:19:13.226Z,1.10
2022-09-27T17:21:42.208Z,1.38
2022-09-27T17:24:09.025Z,1.10
2022-09-27T17:26:35.731Z,0.80
2022-09-27T17:29:02.484Z,1.25
2022-09-27T17:31:31.185Z,0.93
2022-09-27T17:33:59.844Z,1.45
2022-09-27T17:36:29.909Z,1.08
2022-09-27T17:38:58.537Z,0.80
2022-09-27T17:41:26.657Z,0.95
2022-09-27T17:43:56.386Z,0.80
2022-09-27T17:46:25.643Z,1.10
2022-09-27T17:49:10.827Z,1.13
2022-09-27T17:51:39.843Z,1.30
2022-09-27T17:54:08.635Z,1.10
2022-09-27T17:56:39.630Z,1.00
2022-09-27T17:59:07.531Z,1.83
2022-09-27T18:01:34.683Z,1.33
2022-09-27T18:04:01.620Z,0.90
2022-09-27T18:06:28.844Z,1.30
2022-09-27T18:08:56.230Z,1.05
2022-09-27T18:11:28.421Z,1.33
2022-09-27T18:14:01.923Z,1.42
2022-09-27T18:16:32.082Z,1.42
2022-09-27T18:19:00.135Z,1.38
2022-09-27T18:21:27.511Z,1.50
2022-09-27T18:23:58.999Z,1.13
2022-09-27T18:26:27.063Z,1.45
2022-09-27T18:28:55.733Z,0.98
2022-09-27T18:31:25.814Z,1.77
2022-09-27T18:33:52.592Z,1.55
2022-09-27T18:36:21.444Z,1.23
2022-09-27T18:38:57.006Z,1.27
2022-09-27T18:43:57.881Z,1.20
2022-09-27T18:46:35.986Z,1.60
2022-09-27T18:49:05.062Z,1.15
2022-09-27T18:51:32.295Z,1.70
2022-09-27T18:54:00.817Z,1.27
2022-09-27T18:56:29.136Z,1.20
2022-09-27T18:58:57.261Z,0.90
2022-09-27T19:01:25.548Z,1.67
2022-09-27T19:03:52.937Z,1.55
2022-09-27T19:06:22.205Z,1.73
2022-09-27T19:08:58.379Z,1.67
2022-09-27T19:11:26.950Z,1.30
2022-09-27T19:13:55.628Z,1.85
2022-09-27T19:16:23.495Z,1.85
2022-09-27T19:18:50.999Z,1.83
2022-09-27T19:21:20.639Z,1.20
2022-09-27T19:23:48.683Z,1.40
2022-09-27T19:26:19.111Z,1.10
2022-09-27T19:28:46.768Z,1.73
2022-09-27T19:31:21.652Z,1.40
2022-09-27T19:33:48.665Z,1.65
2022-09-27T19:36:17.140Z,1.50
2022-09-27T19:38:43.777Z,1.48
2022-09-27T19:41:13.701Z,1.60
2022-09-27T19:43:40.843Z,1.35
2022-09-27T19:46:11.063Z,0.90
2022-09-27T19:48:38.340Z,1.30
2022-09-27T19:51:06.574Z,1.42
2022-09-27T19:53:34.401Z,1.30
2022-09-27T19:56:03.598Z,1.20
2022-09-27T19:58:31.677Z,1.45
2022-09-27T20:01:06.416Z,1.30
2022-09-27T20:03:35.110Z,1.80
2022-09-27T20:06:02.549Z,1.27
2022-09-27T20:08:30.026Z,1.40
2022-09-27T20:11:00.295Z,1.40
2022-09-27T20:13:30.946Z,1.80
2022-09-27T20:16:09.558Z,1.15
2022-09-27T20:18:41.406Z,1.23
2022-09-27T20:21:08.514Z,1.05
2022-09-27T20:23:35.840Z,1.55
2022-09-27T20:26:08.065Z,1.33
2022-09-27T20:28:35.976Z,1.25
2022-09-27T20:31:05.067Z,1.25
2022-09-27T20:33:44.639Z,1.10
2022-09-27T20:36:13.529Z,1.73
2022-09-27T20:38:46.082Z,1.48
2022-09-27T20:41:16.161Z,2.22
2022-09-27T20:43:44.315Z,2.10
2022-09-27T20:46:13.982Z,2.20
2022-09-27T20:48:41.080Z,1.40
2022-09-27T20:51:08.127Z,1.67
2022-09-27T20:53:35.076Z,1.77
2022-09-27T20:56:02.777Z,1.88
2022-09-27T20:58:31.102Z,1.25
2022-09-27T21:01:03.885Z,2.13
2022-09-27T21:03:30.669Z,1.60
2022-09-27T21:05:57.926Z,1.95
2022-09-27T21:08:24.948Z,1.77
2022-09-27T21:10:53.003Z,1.58
2022-09-27T21:13:19.897Z,1.95
2022-09-27T21:15:46.835Z,1.77
2022-09-27T21:18:13.456Z,2.00
2022-09-27T21:20:39.964Z,2.40
2022-09-27T21:23:06.511Z,2.17
2022-09-27T21:25:33.037Z,2.08
2022-09-27T21:27:59.611Z,2.75
2022-09-27T21:30:26.384Z,2.53
2022-09-27T21:32:57.323Z,3.47
2022-09-27T21:35:24.439Z,2.60
2022-09-27T21:37:50.914Z,3.45
2022-09-27T21:40:17.756Z,3.40
2022-09-27T21:42:44.365Z,2.55
2022-09-27T21:45:11.106Z,2.53
2022-09-27T21:47:37.603Z,2.88
2022-09-27T21:50:04.518Z,2.53
2022-09-27T21:52:31.142Z,2.97
2022-09-27T21:54:57.880Z,2.83
2022-09-27T21:57:24.418Z,3.03
2022-09-27T21:59:51.423Z,3.08
2022-09-27T22:02:19.454Z,3.55
2022-09-27T22:04:48.046Z,3.17
2022-09-27T22:07:14.589Z,3.00
2022-09-27T22:09:41.212Z,3.10
2022-09-27T22:12:08.102Z,2.33
2022-09-27T22:14:34.890Z,3.42
2022-09-27T22:17:01.512Z,3.03
2022-09-27T22:19:28.305Z,2.88
2022-09-27T22:21:54.787Z,3.47
2022-09-27T22:24:21.432Z,3.22
2022-09-27T22:26:50.256Z,3.05
2022-09-27T22:29:17.435Z,3.22
2022-09-27T22:31:44.089Z,2.97
2022-09-27T22:34:28.780Z,3.10
2022-09-27T22:36:57.127Z,3.57
2022-09-27T22:39:23.665Z,4.10
2022-09-27T22:41:50.513Z,4.00
2022-09-27T22:44:17.146Z,3.60
2022-09-27T22:46:44.088Z,3.50
2022-09-27T22:49:10.702Z,3.17
2022-09-27T22:51:37.367Z,3.60
2022-09-27T22:54:04.134Z,4.72
2022-09-27T22:56:30.722Z,3.92
2022-09-27T22:58:57.398Z,3.95
2022-09-27T23:01:25.221Z,3.45
2022-09-27T23:03:53.734Z,3.63
2022-09-27T23:06:22.057Z,3.47
2022-09-27T23:08:49.477Z,3.92
2022-09-27T23:11:18.772Z,3.40
2022-09-27T23:13:46.615Z,3.78
2022-09-27T23:16:19.950Z,3.95
2022-09-27T23:18:47.632Z,3.10
2022-09-27T23:21:15.237Z,3.45
2022-09-27T23:23:44.837Z,3.22
2022-09-27T23:26:16.100Z,3.05
2022-09-27T23:28:43.723Z,2.42
2022-09-27T23:31:15.260Z,2.60
2022-09-27T23:33:44.963Z,2.30
2022-09-27T23:36:17.000Z,1.90
2022-09-27T23:38:45.669Z,2.85
2022-09-27T23:41:13.374Z,2.60
2022-09-27T23:43:40.004Z,2.88
2022-09-27T23:46:07.738Z,3.40
2022-09-27T23:48:35.492Z,3.70
2022-09-27T23:51:03.854Z,4.03
2022-09-27T23:53:30.519Z,3.28
2022-09-27T23:56:03.764Z,3.45
2022-09-27T23:58:38.477Z,3.55
